Time;durP1;ratioP1;P1;durP2;ratioP2;P2;SDS_P1;SDS_P2;PMS_P1;PMS_P2;Temp;Humidity;BMP_temperature;BMP_pressure;BME280_temperature;BME280_humidity;BME280_pressure;Samples;Min_cycle;Max_cycle;Signal;HPM_P1;HPM_P2
2022/06/26 00:00:35;;;;;;;4.53;3.85;;;;;;;;;;4939356;29;20203;-79
2022/06/26 00:03:04;;;;;;;4.85;4.45;;;;;;;;;;4938714;29;20222;-79
2022/06/26 00:05:34;;;;;;;4.72;4.28;;;;;;;;;;4939324;29;20630;-79
2022/06/26 00:08:03;;;;;;;4.32;4.03;;;;;;;;;;4939017;29;20231;-79
2022/06/26 00:10:31;;;;;;;4.82;4.40;;;;;;;;;;4939405;29;20219;-79
2022/06/26 00:13:00;;;;;;;4.68;4.28;;;;;;;;;;4939499;29;20207;-80
2022/06/26 00:15:28;;;;;;;4.78;4.38;;;;;;;;;;4938855;29;20278;-79
2022/06/26 00:17:57;;;;;;;4.47;4.07;;;;;;;;;;4938946;29;20661;-79
2022/06/26 00:20:25;;;;;;;4.60;4.20;;;;;;;;;;4938593;29;20214;-79
2022/06/26 00:22:55;;;;;;;4.28;3.90;;;;;;;;;;4938816;29;20207;-79
2022/06/26 00:25:23;;;;;;;4.65;4.28;;;;;;;;;;4938809;29;20581;-79
2022/06/26 00:27:52;;;;;;;4.90;4.50;;;;;;;;;;4938680;29;20278;-79
2022/06/26 00:30:20;;;;;;;5.43;4.15;;;;;;;;;;4938810;29;20203;-79
2022/06/26 00:32:49;;;;;;;4.47;3.95;;;;;;;;;;4938493;29;20620;-79
2022/06/26 00:35:17;;;;;;;4.43;4.07;;;;;;;;;;4938521;29;20220;-80
2022/06/26 00:37:45;;;;;;;4.70;4.28;;;;;;;;;;4938591;29;20590;-79
2022/06/26 00:40:14;;;;;;;4.60;4.20;;;;;;;;;;4938210;29;20211;-79
2022/06/26 00:42:43;;;;;;;4.50;4.07;;;;;;;;;;4938566;29;20203;-79
2022/06/26 00:45:12;;;;;;;4.60;4.20;;;;;;;;;;4938454;29;20701;-79
2022/06/26 00:47:40;;;;;;;4.78;4.32;;;;;;;;;;4938321;29;20222;-79
2022/06/26 00:50:09;;;;;;;5.80;4.50;;;;;;;;;;4938867;29;20210;-79
2022/06/26 00:52:39;;;;;;;5.28;4.55;;;;;;;;;;4938382;29;20207;-79
2022/06/26 00:55:08;;;;;;;4.82;4.30;;;;;;;;;;4937971;29;20715;-79
2022/06/26 00:57:38;;;;;;;5.00;4.40;;;;;;;;;;4938266;29;20683;-79
2022/06/26 01:00:08;;;;;;;5.00;4.60;;;;;;;;;;4938240;29;20645;-79
2022/06/26 01:02:37;;;;;;;4.93;4.35;;;;;;;;;;4938194;29;20218;-80
2022/06/26 01:05:06;;;;;;;4.88;4.47;;;;;;;;;;4938091;29;20239;-80
2022/06/26 01:07:34;;;;;;;5.32;4.82;;;;;;;;;;4937808;29;20274;-80
2022/06/26 01:10:04;;;;;;;5.68;5.13;;;;;;;;;;4937545;29;20239;-79
2022/06/26 01:12:33;;;;;;;4.78;4.25;;;;;;;;;;4937684;29;20214;-79
2022/06/26 01:15:03;;;;;;;5.03;4.63;;;;;;;;;;4937421;29;20227;-79
2022/06/26 01:17:32;;;;;;;5.10;4.70;;;;;;;;;;4937843;29;20254;-79
2022/06/26 01:20:01;;;;;;;5.90;4.80;;;;;;;;;;4937885;29;20298;-79
2022/06/26 01:22:31;;;;;;;5.18;4.78;;;;;;;;;;4937231;29;20207;-79
2022/06/26 01:24:59;;;;;;;5.60;5.10;;;;;;;;;;4938028;29;20710;-80
2022/06/26 01:27:28;;;;;;;6.07;4.68;;;;;;;;;;4937303;29;20222;-79
2022/06/26 01:29:57;;;;;;;5.18;4.68;;;;;;;;;;4937542;29;20203;-79
2022/06/26 01:32:26;;;;;;;4.70;4.30;;;;;;;;;;4937637;29;20218;-79
2022/06/26 01:34:54;;;;;;;6.40;5.00;;;;;;;;;;4937288;29;20230;-79
2022/06/26 01:37:23;;;;;;;5.63;5.10;;;;;;;;;;4937590;29;20274;-79
2022/06/26 01:39:52;;;;;;;5.47;4.80;;;;;;;;;;4937472;29;20258;-79
2022/06/26 01:42:21;;;;;;;4.13;3.80;;;;;;;;;;4937473;29;20625;-79
2022/06/26 01:44:49;;;;;;;4.70;4.30;;;;;;;;;;4936841;29;20231;-80
2022/06/26 01:47:18;;;;;;;5.07;4.68;;;;;;;;;;4937589;29;20282;-80
2022/06/26 01:49:46;;;;;;;5.70;5.20;;;;;;;;;;4937641;29;20278;-79
2022/06/26 01:52:15;;;;;;;6.35;4.97;;;;;;;;;;4936883;29;20207;-79
2022/06/26 01:54:44;;;;;;;7.00;6.40;;;;;;;;;;4936955;29;20246;-79
2022/06/26 01:57:13;;;;;;;10.63;9.43;;;;;;;;;;4937211;29;20200;-79
2022/06/26 01:59:42;;;;;;;9.33;8.33;;;;;;;;;;4936871;29;20269;-79
2022/06/26 02:02:10;;;;;;;7.87;7.07;;;;;;;;;;4937172;29;20651;-80
2022/06/26 02:04:39;;;;;;;8.47;7.67;;;;;;;;;;4936811;29;20227;-80
2022/06/26 02:07:07;;;;;;;7.57;6.70;;;;;;;;;;4936926;29;20266;-79
2022/06/26 02:15:10;;;;;;;6.27;5.70;;;;;;;;;;4936738;29;20231;-79
2022/06/26 02:17:38;;;;;;;6.07;5.40;;;;;;;;;;4936476;29;20262;-79
2022/06/26 02:20:08;;;;;;;5.30;4.80;;;;;;;;;;4936803;29;20203;-79
2022/06/26 02:22:36;;;;;;;5.07;4.67;;;;;;;;;;4936764;29;20262;-79
2022/06/26 02:25:08;;;;;;;4.97;4.57;;;;;;;;;;4936695;29;20692;-79
2022/06/26 02:27:38;;;;;;;5.10;4.70;;;;;;;;;;4936183;29;20309;-79
2022/06/26 02:30:07;;;;;;;4.77;4.47;;;;;;;;;;4936054;29;20278;-79
2022/06/26 02:32:36;;;;;;;5.63;5.13;;;;;;;;;;4936618;29;20222;-79
2022/06/26 02:35:04;;;;;;;4.93;4.53;;;;;;;;;;4935924;29;20287;-79
2022/06/26 02:37:34;;;;;;;5.07;4.57;;;;;;;;;;4936644;29;20627;-79
2022/06/26 02:40:03;;;;;;;5.37;4.90;;;;;;;;;;4936661;29;20205;-79
2022/06/26 02:42:32;;;;;;;4.70;4.30;;;;;;;;;;4936439;29;20207;-80
2022/06/26 02:45:01;;;;;;;5.53;5.10;;;;;;;;;;4936354;29;20231;-80
2022/06/26 02:47:30;;;;;;;4.90;4.50;;;;;;;;;;4936292;29;20237;-79
2022/06/26 02:49:58;;;;;;;5.13;4.70;;;;;;;;;;4936506;29;20217;-80
2022/06/26 02:52:28;;;;;;;5.90;5.40;;;;;;;;;;4936387;29;20639;-79
2022/06/26 02:54:56;;;;;;;5.40;4.90;;;;;;;;;;4935829;29;20242;-75
2022/06/26 02:57:25;;;;;;;5.73;5.23;;;;;;;;;;4936107;29;20207;-75
2022/06/26 02:59:53;;;;;;;4.70;4.40;;;;;;;;;;4936041;29;20267;-75
2022/06/26 03:02:24;;;;;;;4.83;4.43;;;;;;;;;;4936022;29;20262;-75
2022/06/26 03:04:53;;;;;;;5.83;5.23;;;;;;;;;;4935621;29;20342;-75
2022/06/26 03:07:21;;;;;;;5.80;4.80;;;;;;;;;;4936069;29;20207;-75
2022/06/26 03:09:50;;;;;;;4.93;4.53;;;;;;;;;;4935264;29;20207;-75
2022/06/26 03:12:18;;;;;;;5.83;5.33;;;;;;;;;;4935869;29;20210;-75
2022/06/26 03:14:47;;;;;;;5.57;5.10;;;;;;;;;;4935852;29;20235;-75
2022/06/26 03:17:15;;;;;;;6.37;4.97;;;;;;;;;;4935641;29;20203;-75
2022/06/26 03:19:45;;;;;;;5.30;4.80;;;;;;;;;;4935778;29;20557;-75
2022/06/26 03:22:13;;;;;;;5.83;5.23;;;;;;;;;;4935948;29;20266;-75
2022/06/26 03:24:42;;;;;;;6.13;5.00;;;;;;;;;;4935041;29;20227;-75
2022/06/26 03:27:10;;;;;;;6.80;4.90;;;;;;;;;;4935426;29;20215;-75
2022/06/26 03:29:39;;;;;;;5.60;4.90;;;;;;;;;;4935719;29;20703;-75
2022/06/26 03:32:08;;;;;;;5.83;5.23;;;;;;;;;;4936101;29;20211;-75
2022/06/26 03:34:36;;;;;;;12.53;5.77;;;;;;;;;;4935662;29;20230;-75
2022/06/26 03:37:06;;;;;;;6.30;5.57;;;;;;;;;;4934995;29;20207;-75
2022/06/26 03:39:34;;;;;;;7.37;5.20;;;;;;;;;;4935496;29;20204;-75
2022/06/26 03:42:03;;;;;;;5.80;5.10;;;;;;;;;;4935728;29;20700;-75
2022/06/26 03:44:32;;;;;;;5.80;5.30;;;;;;;;;;4935483;29;20722;-75
2022/06/26 03:47:01;;;;;;;6.37;5.13;;;;;;;;;;4934994;29;20207;-75
2022/06/26 03:49:29;;;;;;;5.80;5.30;;;;;;;;;;4935314;29;20274;-75
2022/06/26 03:51:58;;;;;;;7.40;4.77;;;;;;;;;;4934233;29;20259;-75
2022/06/26 03:54:27;;;;;;;5.40;5.00;;;;;;;;;;4935378;29;20600;-75
2022/06/26 03:56:56;;;;;;;5.60;5.10;;;;;;;;;;4935602;29;20638;-75
2022/06/26 03:59:24;;;;;;;5.80;5.30;;;;;;;;;;4935578;29;20278;-75
2022/06/26 04:01:53;;;;;;;6.10;5.60;;;;;;;;;;4935530;29;20262;-75
2022/06/26 04:04:21;;;;;;;5.83;5.33;;;;;;;;;;4935200;29;20230;-75
2022/06/26 04:06:51;;;;;;;5.67;5.17;;;;;;;;;;4935556;29;20203;-75
2022/06/26 04:09:19;;;;;;;6.20;5.60;;;;;;;;;;4938715;29;20223;-75
2022/06/26 04:11:49;;;;;;;5.37;4.87;;;;;;;;;;4939132;29;20219;-75
2022/06/26 04:14:17;;;;;;;5.80;5.23;;;;;;;;;;4938921;29;20795;-75
2022/06/26 04:16:46;;;;;;;5.97;5.23;;;;;;;;;;4938683;29;20207;-75
2022/06/26 04:19:15;;;;;;;6.43;5.33;;;;;;;;;;4938489;29;20203;-75
2022/06/26 04:21:43;;;;;;;5.50;5.10;;;;;;;;;;4938794;29;20215;-75
2022/06/26 04:24:12;;;;;;;7.37;5.20;;;;;;;;;;4938639;29;20712;-75
2022/06/26 04:26:40;;;;;;;6.20;5.20;;;;;;;;;;4938596;29;20293;-75
2022/06/26 04:29:10;;;;;;;6.13;5.57;;;;;;;;;;4938532;29;20227;-75
2022/06/26 04:31:38;;;;;;;7.03;6.10;;;;;;;;;;4938445;29;20289;-75
2022/06/26 04:34:07;;;;;;;6.23;5.70;;;;;;;;;;4938245;29;20237;-75
2022/06/26 04:36:35;;;;;;;5.70;5.27;;;;;;;;;;4937480;29;20211;-75
2022/06/26 04:39:04;;;;;;;6.70;6.10;;;;;;;;;;4938415;29;20571;-75
2022/06/26 04:41:34;;;;;;;6.10;5.60;;;;;;;;;;4938571;29;20244;-75
2022/06/26 04:44:07;;;;;;;6.43;5.70;;;;;;;;;;4938252;29;20703;-75
2022/06/26 04:46:37;;;;;;;6.20;5.70;;;;;;;;;;4938167;29;20203;-75
2022/06/26 04:49:06;;;;;;;5.87;5.37;;;;;;;;;;4938282;29;20612;-76
2022/06/26 04:51:36;;;;;;;5.40;5.00;;;;;;;;;;4924277;29;20222;-75
2022/06/26 04:54:05;;;;;;;5.17;4.70;;;;;;;;;;4921263;29;20256;-75
2022/06/26 04:56:33;;;;;;;5.57;5.07;;;;;;;;;;4932636;29;20273;-75
2022/06/26 04:59:02;;;;;;;5.77;5.17;;;;;;;;;;4937988;29;20238;-75
2022/06/26 05:01:30;;;;;;;5.57;5.07;;;;;;;;;;4938247;29;20633;-75
2022/06/26 05:04:01;;;;;;;5.63;5.13;;;;;;;;;;4937729;29;20207;-76
2022/06/26 05:06:29;;;;;;;5.78;5.28;;;;;;;;;;4937520;29;20569;-75
2022/06/26 05:08:58;;;;;;;5.25;4.88;;;;;;;;;;4937933;29;20226;-75
2022/06/26 05:11:33;;;;;;;4.85;4.45;;;;;;;;;;4939660;29;20723;-75
2022/06/26 05:14:03;;;;;;;5.15;4.35;;;;;;;;;;4937054;29;20211;-75
2022/06/26 05:16:31;;;;;;;5.10;4.57;;;;;;;;;;4938515;29;20195;-76
2022/06/26 05:19:01;;;;;;;4.50;4.07;;;;;;;;;;4936361;29;20199;-76
2022/06/26 05:21:29;;;;;;;4.55;3.88;;;;;;;;;;4937873;29;20254;-75
2022/06/26 05:23:58;;;;;;;4.03;3.72;;;;;;;;;;4938354;29;20634;-75
2022/06/26 05:26:27;;;;;;;4.50;4.10;;;;;;;;;;4937596;29;20215;-75
2022/06/26 05:28:55;;;;;;;4.07;3.75;;;;;;;;;;4937590;29;20267;-75
2022/06/26 05:31:24;;;;;;;3.80;3.50;;;;;;;;;;4937451;29;20266;-75
2022/06/26 05:33:53;;;;;;;3.90;3.60;;;;;;;;;;4936851;29;20200;-75
2022/06/26 05:36:22;;;;;;;3.90;3.50;;;;;;;;;;4937535;29;20266;-75
2022/06/26 05:38:51;;;;;;;3.97;3.67;;;;;;;;;;4937372;29;20635;-75
2022/06/26 05:41:19;;;;;;;4.95;3.40;;;;;;;;;;4937654;29;20258;-75
2022/06/26 05:43:48;;;;;;;4.40;3.58;;;;;;;;;;4937223;29;20207;-75
2022/06/26 05:46:17;;;;;;;4.47;4.07;;;;;;;;;;4937661;29;20660;-75
2022/06/26 05:48:45;;;;;;;4.40;4.00;;;;;;;;;;4936418;29;20214;-75
2022/06/26 05:51:13;;;;;;;4.03;3.72;;;;;;;;;;4937366;29;20702;-75
2022/06/26 05:53:50;;;;;;;4.60;4.10;;;;;;;;;;4939794;29;20207;-75
2022/06/26 05:56:21;;;;;;;4.88;4.07;;;;;;;;;;4920500;29;20229;-75
2022/06/26 05:58:49;;;;;;;5.68;3.75;;;;;;;;;;4936899;29;20210;-75
2022/06/26 06:01:17;;;;;;;5.05;4.15;;;;;;;;;;4937560;29;20550;-75
2022/06/26 06:03:46;;;;;;;4.53;3.83;;;;;;;;;;4936843;29;20715;-76
2022/06/26 06:06:14;;;;;;;7.55;5.10;;;;;;;;;;4939135;29;20222;-79
2022/06/26 06:08:44;;;;;;;5.93;4.90;;;;;;;;;;4937829;29;20210;-79
2022/06/26 06:11:13;;;;;;;5.40;4.82;;;;;;;;;;4937263;29;20223;-79
2022/06/26 06:13:41;;;;;;;6.10;4.40;;;;;;;;;;4936662;29;20207;-79
2022/06/26 06:16:10;;;;;;;4.45;4.03;;;;;;;;;;4937103;29;20226;-80
2022/06/26 06:18:38;;;;;;;4.13;3.72;;;;;;;;;;4936819;29;20206;-80
2022/06/26 06:21:12;;;;;;;3.80;3.25;;;;;;;;;;4937169;29;20220;-80
2022/06/26 06:23:42;;;;;;;3.58;3.28;;;;;;;;;;4936822;29;20219;-79
2022/06/26 06:26:12;;;;;;;5.78;3.45;;;;;;;;;;4937293;29;20233;-79
2022/06/26 06:28:41;;;;;;;3.80;3.50;;;;;;;;;;4936582;29;20211;-79
2022/06/26 06:31:09;;;;;;;4.10;3.70;;;;;;;;;;4936391;29;20297;-80
2022/06/26 06:33:38;;;;;;;4.18;3.78;;;;;;;;;;4936934;29;20207;-80
2022/06/26 06:36:06;;;;;;;4.32;3.92;;;;;;;;;;4936666;29;20230;-79
2022/06/26 06:38:35;;;;;;;4.10;3.53;;;;;;;;;;4936539;29;20308;-79
2022/06/26 06:41:04;;;;;;;5.40;3.70;;;;;;;;;;4936226;29;20207;-78
2022/06/26 06:43:33;;;;;;;4.88;3.50;;;;;;;;;;4936529;29;20207;-79
2022/06/26 06:46:02;;;;;;;3.80;3.45;;;;;;;;;;4936465;29;20629;-79
2022/06/26 06:48:30;;;;;;;3.83;3.38;;;;;;;;;;4936520;29;20266;-79
2022/06/26 06:50:59;;;;;;;3.80;3.45;;;;;;;;;;4936123;29;20223;-79
2022/06/26 06:53:27;;;;;;;4.15;3.53;;;;;;;;;;4936416;29;20207;-80
2022/06/26 06:55:56;;;;;;;3.25;2.90;;;;;;;;;;4936155;29;20298;-80
2022/06/26 06:58:24;;;;;;;4.45;2.92;;;;;;;;;;4936404;29;20206;-80
2022/06/26 07:00:54;;;;;;;3.72;2.90;;;;;;;;;;4936219;29;20202;-79
2022/06/26 07:03:23;;;;;;;3.67;3.35;;;;;;;;;;4936121;29;20218;-80
2022/06/26 07:05:51;;;;;;;4.13;2.88;;;;;;;;;;4936267;29;20227;-79
2022/06/26 07:08:20;;;;;;;3.45;2.88;;;;;;;;;;4936762;29;20207;-79
2022/06/26 07:10:48;;;;;;;3.05;2.85;;;;;;;;;;4936292;29;20244;-79
2022/06/26 07:13:17;;;;;;;5.07;2.95;;;;;;;;;;4936231;29;20210;-78
2022/06/26 07:15:45;;;;;;;3.83;2.90;;;;;;;;;;4935856;29;20234;-79
2022/06/26 07:18:15;;;;;;;3.88;3.30;;;;;;;;;;4936303;29;20211;-79
2022/06/26 07:20:43;;;;;;;3.22;2.80;;;;;;;;;;4936292;29;20203;-79
2022/06/26 07:23:12;;;;;;;3.42;2.90;;;;;;;;;;4936107;29;20206;-79
2022/06/26 07:25:40;;;;;;;3.83;3.20;;;;;;;;;;4936106;29;20317;-79
2022/06/26 07:28:09;;;;;;;3.17;2.88;;;;;;;;;;4936135;29;20601;-79
2022/06/26 07:30:38;;;;;;;3.10;2.90;;;;;;;;;;4935646;29;20711;-79
2022/06/26 07:34:12;;;;;;;3.85;3.20;;;;;;;;;;4935980;29;20207;-79
2022/06/26 07:36:00;;;;;;;3.90;3.33;;;;;;;;;;4935397;29;20255;-79
2022/06/26 07:38:35;;;;;;;3.70;3.35;;;;;;;;;;4935592;29;20218;-79
2022/06/26 07:41:05;;;;;;;4.32;3.13;;;;;;;;;;4935853;29;20629;-79
2022/06/26 07:43:34;;;;;;;3.63;3.33;;;;;;;;;;4939350;29;20207;-80
2022/06/26 07:46:02;;;;;;;4.05;3.75;;;;;;;;;;4939389;29;20238;-80
2022/06/26 07:48:31;;;;;;;4.38;3.95;;;;;;;;;;4939517;29;20211;-79
2022/06/26 07:51:01;;;;;;;4.97;3.60;;;;;;;;;;4939213;29;20226;-80
2022/06/26 07:53:30;;;;;;;4.15;3.75;;;;;;;;;;4939582;29;20215;-79
2022/06/26 07:55:59;;;;;;;4.25;3.85;;;;;;;;;;4939134;29;20241;-79
2022/06/26 07:58:27;;;;;;;4.65;3.78;;;;;;;;;;4939518;29;20203;-79
2022/06/26 08:00:55;;;;;;;4.75;4.18;;;;;;;;;;4939045;29;20702;-79
2022/06/26 08:03:24;;;;;;;4.82;4.43;;;;;;;;;;4939409;29;20211;-79
2022/06/26 08:05:52;;;;;;;4.50;4.10;;;;;;;;;;4939152;29;20309;-79
2022/06/26 08:08:23;;;;;;;4.18;3.78;;;;;;;;;;4939246;29;20552;-79
2022/06/26 08:10:51;;;;;;;4.45;4.10;;;;;;;;;;4939752;29;20687;-78
2022/06/26 08:13:20;;;;;;;4.22;3.83;;;;;;;;;;4939238;29;20214;-79
2022/06/26 08:15:48;;;;;;;4.55;3.90;;;;;;;;;;4939053;29;20723;-79
2022/06/26 08:18:32;;;;;;;4.05;3.53;;;;;;;;;;4939225;29;20203;-79
2022/06/26 08:23:48;;;;;;;4.18;3.75;;;;;;;;;;4938741;29;20210;-79
2022/06/26 08:29:32;;;;;;;4.82;4.35;;;;;;;;;;4880648;29;20216;-79
2022/06/26 08:32:01;;;;;;;4.63;3.70;;;;;;;;;;4928109;29;20775;-79
2022/06/26 08:34:30;;;;;;;4.22;3.60;;;;;;;;;;4938738;29;20228;-79
2022/06/26 08:36:59;;;;;;;4.10;3.80;;;;;;;;;;4940074;29;20293;-80
2022/06/26 08:39:30;;;;;;;4.25;3.50;;;;;;;;;;4940124;29;20214;-80
2022/06/26 08:41:59;;;;;;;4.75;4.30;;;;;;;;;;4939313;29;20647;-80
2022/06/26 08:44:28;;;;;;;4.65;4.30;;;;;;;;;;4939392;29;20232;-80
2022/06/26 08:46:56;;;;;;;4.10;3.70;;;;;;;;;;4938592;29;20211;-79
2022/06/26 08:49:25;;;;;;;4.43;4.03;;;;;;;;;;4938798;29;20215;-79
2022/06/26 08:51:59;;;;;;;4.85;3.85;;;;;;;;;;4938371;29;20255;-79
2022/06/26 08:54:30;;;;;;;4.32;3.92;;;;;;;;;;4937970;29;20310;-79
2022/06/26 08:57:00;;;;;;;4.20;3.80;;;;;;;;;;4938181;29;20239;-79
2022/06/26 08:59:31;;;;;;;4.45;4.05;;;;;;;;;;4938522;29;20199;-79
2022/06/26 09:01:59;;;;;;;3.70;3.40;;;;;;;;;;4938460;29;20183;-79
2022/06/26 09:04:28;;;;;;;4.00;3.55;;;;;;;;;;4936755;29;20262;-78
2022/06/26 09:06:57;;;;;;;3.40;3.10;;;;;;;;;;4936908;29;20196;-78
2022/06/26 09:09:27;;;;;;;3.40;3.10;;;;;;;;;;4936781;29;20613;-79
2022/06/26 09:11:58;;;;;;;3.75;3.45;;;;;;;;;;4936330;29;20596;-78
2022/06/26 09:14:28;;;;;;;3.47;3.22;;;;;;;;;;4936613;29;20306;-79
2022/06/26 09:16:57;;;;;;;3.80;3.40;;;;;;;;;;4936859;29;20212;-79
2022/06/26 09:19:28;;;;;;;5.80;2.83;;;;;;;;;;4936587;29;20245;-79
2022/06/26 09:22:06;;;;;;;4.80;3.45;;;;;;;;;;4937316;29;20246;-80
2022/06/26 09:24:36;;;;;;;3.45;2.95;;;;;;;;;;4938337;29;20234;-79
2022/06/26 09:27:10;;;;;;;3.00;2.70;;;;;;;;;;4938330;29;20199;-80
2022/06/26 09:29:41;;;;;;;2.67;2.47;;;;;;;;;;4938128;29;20242;-79
2022/06/26 09:32:10;;;;;;;2.90;2.67;;;;;;;;;;4938422;29;20263;-80
2022/06/26 09:34:40;;;;;;;2.80;2.60;;;;;;;;;;4938479;29;20231;-80
2022/06/26 09:37:10;;;;;;;3.20;2.60;;;;;;;;;;4939868;29;20214;-80
2022/06/26 09:39:39;;;;;;;2.60;2.40;;;;;;;;;;4939341;29;20266;-80
2022/06/26 09:42:22;;;;;;;2.78;2.42;;;;;;;;;;4938660;29;20227;-80
2022/06/26 09:44:52;;;;;;;2.65;2.45;;;;;;;;;;4937397;29;20250;-80
2022/06/26 09:47:25;;;;;;;2.40;2.20;;;;;;;;;;4937968;29;20195;-79
2022/06/26 09:49:54;;;;;;;2.53;2.33;;;;;;;;;;4937802;29;20237;-80
2022/06/26 09:52:24;;;;;;;3.33;2.33;;;;;;;;;;4937179;29;20282;-79
2022/06/26 09:54:52;;;;;;;2.33;2.13;;;;;;;;;;4937603;29;20242;-79
2022/06/26 09:57:27;;;;;;;2.72;2.53;;;;;;;;;;4937374;29;20194;-79
2022/06/26 09:59:56;;;;;;;4.97;2.20;;;;;;;;;;4937370;29;20207;-80
2022/06/26 10:08:02;;;;;;;5.15;2.30;;;;;;;;;;4937150;29;20211;-79
2022/06/26 10:10:32;;;;;;;3.17;2.50;;;;;;;;;;4937441;29;20726;-79
2022/06/26 10:13:11;;;;;;;2.58;2.00;;;;;;;;;;4937493;29;20646;-80
2022/06/26 10:15:47;;;;;;;2.50;2.30;;;;;;;;;;4936931;29;20703;-80
2022/06/26 10:18:26;;;;;;;3.63;2.13;;;;;;;;;;4937315;29;20210;-80
2022/06/26 10:20:56;;;;;;;2.42;2.20;;;;;;;;;;4938242;29;20546;-80
2022/06/26 10:23:32;;;;;;;2.30;2.20;;;;;;;;;;4936640;29;20195;-80
2022/06/26 10:26:11;;;;;;;2.40;2.20;;;;;;;;;;4936808;29;20635;-79
2022/06/26 10:28:55;;;;;;;2.28;2.08;;;;;;;;;;4937224;29;20651;-80
2022/06/26 10:31:24;;;;;;;2.47;2.28;;;;;;;;;;4936535;29;20286;-80
2022/06/26 10:33:53;;;;;;;2.45;2.25;;;;;;;;;;4936877;29;20222;-80
2022/06/26 10:36:23;;;;;;;3.05;2.20;;;;;;;;;;4936702;29;20602;-80
2022/06/26 10:39:04;;;;;;;2.30;2.10;;;;;;;;;;4936943;29;20653;-80
2022/06/26 10:44:46;;;;;;;2.38;2.17;;;;;;;;;;4877601;29;20353;-78
2022/06/26 10:47:15;;;;;;;2.30;2.10;;;;;;;;;;4926806;29;20242;-79
2022/06/26 10:49:48;;;;;;;2.42;2.20;;;;;;;;;;4936268;29;20218;-79
2022/06/26 10:52:29;;;;;;;2.40;2.20;;;;;;;;;;4936205;29;20223;-79
2022/06/26 10:54:59;;;;;;;2.38;2.17;;;;;;;;;;4936257;29;20305;-78
2022/06/26 10:57:35;;;;;;;2.60;2.25;;;;;;;;;;4936214;29;20243;-79
2022/06/26 11:00:07;;;;;;;2.72;2.00;;;;;;;;;;4936809;29;20222;-79
2022/06/26 11:02:37;;;;;;;2.40;2.17;;;;;;;;;;4936403;29;20693;-80
2022/06/26 11:05:07;;;;;;;2.05;1.95;;;;;;;;;;4936371;29;20223;-80
2022/06/26 11:07:46;;;;;;;2.38;1.90;;;;;;;;;;4936079;29;20207;-79
2022/06/26 11:10:15;;;;;;;2.38;2.17;;;;;;;;;;4936169;29;20250;-80
2022/06/26 11:12:57;;;;;;;2.08;1.90;;;;;;;;;;4935769;29;20233;-80
2022/06/26 11:15:32;;;;;;;1.98;1.88;;;;;;;;;;4936139;29;20585;-79
2022/06/26 11:18:02;;;;;;;2.30;2.10;;;;;;;;;;4939241;29;20195;-80
2022/06/26 11:20:50;;;;;;;2.05;1.85;;;;;;;;;;4940103;29;20207;-80
2022/06/26 11:23:21;;;;;;;2.10;1.90;;;;;;;;;;4940756;29;20250;-79
2022/06/26 11:25:51;;;;;;;3.15;2.10;;;;;;;;;;4939801;29;20659;-79
2022/06/26 11:28:19;;;;;;;2.10;1.90;;;;;;;;;;4940082;29;20712;-79
2022/06/26 11:30:49;;;;;;;2.10;1.90;;;;;;;;;;4939955;29;20731;-79
2022/06/26 11:33:25;;;;;;;2.10;2.00;;;;;;;;;;4939940;29;20231;-80
2022/06/26 11:35:54;;;;;;;3.20;2.15;;;;;;;;;;4939620;29;20301;-79
2022/06/26 11:38:23;;;;;;;2.47;2.00;;;;;;;;;;4939992;29;20623;-79
2022/06/26 11:40:52;;;;;;;2.28;2.08;;;;;;;;;;4939785;29;20281;-80
2022/06/26 11:43:20;;;;;;;3.03;2.03;;;;;;;;;;4939857;29;20199;-80
2022/06/26 11:45:50;;;;;;;2.20;2.00;;;;;;;;;;4939883;29;20227;-79
2022/06/26 11:48:20;;;;;;;2.13;1.92;;;;;;;;;;4939535;29;20258;-79
2022/06/26 11:50:51;;;;;;;2.17;1.90;;;;;;;;;;4939734;29;20629;-80
2022/06/26 11:53:20;;;;;;;2.33;2.10;;;;;;;;;;4939311;29;20211;-78
2022/06/26 11:55:50;;;;;;;1.98;1.88;;;;;;;;;;4939183;29;20657;-78
2022/06/26 11:58:19;;;;;;;1.90;1.80;;;;;;;;;;4939687;29;20214;-79
2022/06/26 12:00:47;;;;;;;1.88;1.60;;;;;;;;;;4939520;29;20278;-79
2022/06/26 12:03:24;;;;;;;2.78;1.83;;;;;;;;;;4939689;29;20187;-79
2022/06/26 12:05:54;;;;;;;2.10;1.90;;;;;;;;;;4938919;29;20231;-79
2022/06/26 12:08:23;;;;;;;1.90;1.80;;;;;;;;;;4939122;29;20191;-79
2022/06/26 12:10:52;;;;;;;2.17;1.98;;;;;;;;;;4939482;29;20781;-79
2022/06/26 12:13:22;;;;;;;1.80;1.70;;;;;;;;;;4939284;29;20227;-80
2022/06/26 12:15:51;;;;;;;1.90;1.80;;;;;;;;;;4943335;29;20254;-79
2022/06/26 12:18:20;;;;;;;2.13;1.90;;;;;;;;;;4939171;29;20207;-78
2022/06/26 12:20:53;;;;;;;2.08;1.98;;;;;;;;;;4939136;29;20206;-78
2022/06/26 12:23:31;;;;;;;3.05;2.33;;;;;;;;;;4939566;29;20571;-78
2022/06/26 12:26:07;;;;;;;2.20;2.10;;;;;;;;;;4939145;29;20234;-79
2022/06/26 12:28:43;;;;;;;2.40;2.30;;;;;;;;;;4938524;29;20219;-79
2022/06/26 12:31:13;;;;;;;3.65;2.40;;;;;;;;;;4939096;29;20643;-79
2022/06/26 12:33:45;;;;;;;4.07;2.50;;;;;;;;;;4939066;29;20604;-79
2022/06/26 12:36:16;;;;;;;2.53;2.33;;;;;;;;;;4938620;29;20218;-79
2022/06/26 12:38:45;;;;;;;2.83;2.33;;;;;;;;;;4936987;29;20195;-78
2022/06/26 12:41:17;;;;;;;2.63;2.30;;;;;;;;;;4937004;29;20207;-78
2022/06/26 12:43:46;;;;;;;2.28;2.10;;;;;;;;;;4937930;29;20279;-80
2022/06/26 12:46:15;;;;;;;2.35;2.25;;;;;;;;;;4937389;29;20211;-78
2022/06/26 12:48:43;;;;;;;2.90;2.70;;;;;;;;;;4937101;29;20298;-79
2022/06/26 12:51:12;;;;;;;2.80;2.60;;;;;;;;;;4937396;29;20211;-79
2022/06/26 12:53:43;;;;;;;3.60;2.53;;;;;;;;;;4937244;29;20695;-78
2022/06/26 12:56:13;;;;;;;2.80;2.60;;;;;;;;;;4938091;29;20215;-78
2022/06/26 12:58:41;;;;;;;2.45;2.35;;;;;;;;;;4935691;29;20211;-77
2022/06/26 13:01:10;;;;;;;3.22;2.92;;;;;;;;;;4935017;29;20238;-76
2022/06/26 13:03:39;;;;;;;2.65;2.45;;;;;;;;;;4934460;29;20207;-77
2022/06/26 13:06:07;;;;;;;3.28;3.08;;;;;;;;;;4934682;29;20258;-76
2022/06/26 13:08:36;;;;;;;3.33;3.03;;;;;;;;;;4934875;29;20222;-77
2022/06/26 13:11:24;;;;;;;2.67;2.47;;;;;;;;;;4934880;29;20635;-77
2022/06/26 13:13:53;;;;;;;2.92;2.70;;;;;;;;;;4935099;29;20227;-78
2022/06/26 13:16:38;;;;;;;2.97;2.78;;;;;;;;;;4933823;29;20242;-76
2022/06/26 13:19:08;;;;;;;4.30;2.70;;;;;;;;;;4933099;29;20225;-76
2022/06/26 13:21:37;;;;;;;3.50;3.00;;;;;;;;;;4935005;29;20239;-77
2022/06/26 13:24:06;;;;;;;3.17;2.97;;;;;;;;;;4934751;29;20199;-77
2022/06/26 13:26:40;;;;;;;3.38;3.17;;;;;;;;;;4934966;29;20218;-76
2022/06/26 13:29:08;;;;;;;3.60;3.40;;;;;;;;;;4934816;29;20219;-78
2022/06/26 13:31:37;;;;;;;3.92;3.53;;;;;;;;;;4934530;29;20223;-78
2022/06/26 13:34:06;;;;;;;4.32;3.90;;;;;;;;;;4934859;29;20322;-77
2022/06/26 13:36:34;;;;;;;4.13;3.83;;;;;;;;;;4593796;28;10000432;-76
2022/06/26 13:39:04;;;;;;;4.47;4.07;;;;;;;;;;4934194;29;20219;-76
2022/06/26 13:41:32;;;;;;;4.70;4.30;;;;;;;;;;4934462;29;20203;-77
2022/06/26 13:44:02;;;;;;;4.82;4.53;;;;;;;;;;4934515;29;20310;-77
2022/06/26 13:46:31;;;;;;;4.50;4.10;;;;;;;;;;4933692;29;20298;-77
2022/06/26 13:49:00;;;;;;;5.15;4.75;;;;;;;;;;4934034;29;20258;-77
2022/06/26 13:51:28;;;;;;;5.25;4.55;;;;;;;;;;4934997;29;20207;-76
2022/06/26 13:53:57;;;;;;;4.85;4.10;;;;;;;;;;4934015;29;20231;-77
2022/06/26 13:56:25;;;;;;;4.45;4.05;;;;;;;;;;4934000;29;20219;-79
2022/06/26 13:58:54;;;;;;;4.32;4.03;;;;;;;;;;4933772;29;20213;-77
2022/06/26 14:01:35;;;;;;;4.20;3.90;;;;;;;;;;4934478;29;20571;-77
2022/06/26 14:04:11;;;;;;;4.68;4.20;;;;;;;;;;4921035;29;20643;-79
2022/06/26 14:06:39;;;;;;;4.68;4.28;;;;;;;;;;4938653;29;20211;-79
2022/06/26 14:09:08;;;;;;;5.80;5.18;;;;;;;;;;4938554;29;20215;-78
2022/06/26 14:11:36;;;;;;;5.25;4.85;;;;;;;;;;4939915;29;20560;-80
2022/06/26 14:14:05;;;;;;;5.50;5.10;;;;;;;;;;4939253;29;20227;-77
2022/06/26 14:16:35;;;;;;;5.63;5.10;;;;;;;;;;4937736;29;20211;-78
2022/06/26 14:19:03;;;;;;;5.93;5.43;;;;;;;;;;4937186;29;20211;-79
2022/06/26 14:21:32;;;;;;;5.72;5.22;;;;;;;;;;4939000;29;20215;-79
2022/06/26 14:26:46;;;;;;;6.35;5.70;;;;;;;;;;4938594;29;20735;-80
2022/06/26 14:29:14;;;;;;;5.00;4.70;;;;;;;;;;4939038;29;20734;-79
2022/06/26 14:31:44;;;;;;;5.60;5.20;;;;;;;;;;4937056;29;20208;-78
2022/06/26 14:34:32;;;;;;;5.82;5.43;;;;;;;;;;4938494;29;20251;-79
2022/06/26 14:37:01;;;;;;;5.57;5.18;;;;;;;;;;4938479;29;20659;-79
2022/06/26 14:39:29;;;;;;;5.55;5.03;;;;;;;;;;4938443;29;20211;-80
2022/06/26 14:41:58;;;;;;;5.70;5.30;;;;;;;;;;4938052;29;20651;-79
2022/06/26 14:44:26;;;;;;;6.05;5.65;;;;;;;;;;4935450;29;20716;-79
2022/06/26 14:46:56;;;;;;;6.18;5.68;;;;;;;;;;4935252;29;20274;-78
2022/06/26 14:49:25;;;;;;;6.18;5.72;;;;;;;;;;4935237;29;20600;-78
2022/06/26 14:51:53;;;;;;;6.50;6.00;;;;;;;;;;4935218;29;20262;-78
2022/06/26 14:54:22;;;;;;;6.90;6.40;;;;;;;;;;4934462;29;20364;-78
2022/06/26 14:56:50;;;;;;;6.18;5.68;;;;;;;;;;4935232;29;20191;-79
2022/06/26 14:59:19;;;;;;;6.10;5.70;;;;;;;;;;4935217;29;20215;-79
2022/06/26 15:01:47;;;;;;;5.82;5.43;;;;;;;;;;4935286;29;20270;-78
2022/06/26 15:04:17;;;;;;;6.07;5.57;;;;;;;;;;4934833;29;20282;-79
2022/06/26 15:06:46;;;;;;;5.68;5.15;;;;;;;;;;4934959;29;20568;-78
2022/06/26 15:09:14;;;;;;;6.22;5.72;;;;;;;;;;4935258;29;20199;-79
2022/06/26 15:11:44;;;;;;;6.13;5.63;;;;;;;;;;4934911;29;20211;-78
2022/06/26 15:14:18;;;;;;;6.20;5.60;;;;;;;;;;4935539;29;20637;-79
2022/06/26 15:16:49;;;;;;;6.20;5.70;;;;;;;;;;4937322;29;20211;-78
2022/06/26 15:19:19;;;;;;;6.30;5.78;;;;;;;;;;4937608;29;20191;-81
2022/06/26 15:21:47;;;;;;;6.10;5.60;;;;;;;;;;4937457;29;20207;-79